Time;durP1;ratioP1;P1;durP2;ratioP2;P2;SDS_P1;SDS_P2;PMS_P1;PMS_P2;Temp;Humidity;BMP_temperature;BMP_pressure;BME280_temperature;BME280_humidity;BME280_pressure;Samples;Min_cycle;Max_cycle;Signal;HPM_P1;HPM_P2
2022/06/20 00:00:12;;;;;;;16.10;12.00;;;26.20;93.20;;;;;;5028115;28;20525;-86
2022/06/20 00:02:44;;;;;;;12.87;11.00;;;26.20;93.50;;;;;;5024915;28;20461;-86
2022/06/20 00:05:13;;;;;;;13.53;10.87;;;26.10;93.70;;;;;;5025782;28;20510;-87
2022/06/20 00:07:40;;;;;;;17.27;10.90;;;26.00;94.10;;;;;;5031290;28;20475;-84
2022/06/20 00:10:08;;;;;;;13.80;10.97;;;25.90;94.30;;;;;;5037234;28;20463;-85
2022/06/20 00:12:35;;;;;;;14.10;10.80;;;26.00;94.40;;;;;;5032196;28;20954;-86
2022/06/20 00:15:02;;;;;;;15.87;10.73;;;25.80;94.90;;;;;;5028636;28;20595;-87
2022/06/20 00:17:29;;;;;;;15.80;10.00;;;25.70;95.40;;;;;;5041043;28;21033;-86
2022/06/20 00:19:57;;;;;;;17.63;11.20;;;25.80;95.60;;;;;;5034747;28;20494;-85
2022/06/20 00:22:24;;;;;;;12.90;11.13;;;25.70;95.70;;;;;;5028595;28;20451;-85
2022/06/20 00:24:52;;;;;;;14.00;11.07;;;25.60;96.10;;;;;;5030813;28;20514;-85
2022/06/20 00:27:19;;;;;;;14.73;10.80;;;25.40;96.70;;;;;;5040683;28;20466;-86
2022/06/20 00:29:49;;;;;;;15.20;11.20;;;25.50;97.10;;;;;;5029760;28;20522;-85
2022/06/20 00:32:15;;;;;;;16.80;10.80;;;25.40;97.60;;;;;;5024800;28;20503;-85
2022/06/20 00:34:42;;;;;;;21.13;11.50;;;25.50;97.30;;;;;;5025657;28;20831;-85
2022/06/20 00:37:18;;;;;;;11.37;10.17;;;25.50;97.70;;;;;;5024387;28;20455;-85
2022/06/20 00:39:45;;;;;;;17.57;11.13;;;25.50;97.70;;;;;;5023236;28;21016;-85
2022/06/20 00:42:12;;;;;;;20.10;11.83;;;25.60;97.70;;;;;;5023062;28;20513;-85
2022/06/20 00:44:44;;;;;;;14.63;10.03;;;25.60;97.50;;;;;;5023964;28;20537;-85
2022/06/20 00:47:15;;;;;;;13.17;11.27;;;25.60;97.80;;;;;;5022809;28;20529;-85
2022/06/20 00:49:48;;;;;;;17.43;10.60;;;25.60;97.90;;;;;;5024617;28;20783;-85
2022/06/20 00:52:24;;;;;;;16.43;11.23;;;25.50;98.10;;;;;;5023279;28;20446;-85
2022/06/20 00:54:55;;;;;;;15.67;12.27;;;25.60;98.20;;;;;;5039299;28;20449;-85
2022/06/20 00:57:31;;;;;;;14.00;11.00;;;25.40;98.60;;;;;;5039468;28;20524;-85
2022/06/20 01:00:03;;;;;;;19.70;11.20;;;25.40;99.10;;;;;;5036854;28;20558;-84
2022/06/20 01:02:38;;;;;;;12.70;11.37;;;25.50;99.00;;;;;;5035642;28;20455;-85
2022/06/20 01:05:10;;;;;;;15.90;10.47;;;25.30;99.40;;;;;;5030474;28;20529;-85
2022/06/20 01:07:43;;;;;;;14.40;11.50;;;25.40;99.90;;;;;;5035008;28;20491;-85
2022/06/20 01:10:13;;;;;;;19.97;11.60;;;25.30;99.90;;;;;;5027048;28;20558;-85
2022/06/20 01:12:49;;;;;;;15.37;11.63;;;25.20;99.90;;;;;;5020923;28;20533;-84
2022/06/20 01:15:21;;;;;;;16.43;11.87;;;25.00;99.90;;;;;;5023773;28;20514;-85
2022/06/20 01:17:48;;;;;;;21.60;12.70;;;24.90;99.90;;;;;;5025570;28;20451;-86
2022/06/20 01:20:34;;;;;;;20.07;13.37;;;24.80;99.90;;;;;;5026550;28;20510;-86
2022/06/20 01:23:16;;;;;;;15.80;12.30;;;24.90;99.90;;;;;;5025750;28;20439;-85
2022/06/20 01:26:07;;;;;;;18.30;12.53;;;25.00;99.90;;;;;;5023299;28;20449;-85
2022/06/20 01:28:39;;;;;;;19.20;11.93;;;24.90;99.90;;;;;;5021872;28;20424;-86
2022/06/20 01:31:09;;;;;;;17.43;13.33;;;24.80;99.90;;;;;;5022305;28;20462;-86
2022/06/20 01:33:37;;;;;;;16.17;12.93;;;24.60;99.90;;;;;;5022561;28;20431;-86
2022/06/20 01:38:49;;;;;;;25.67;14.27;;;24.40;99.90;;;;;;5022918;28;20410;-85
2022/06/20 03:06:22;;;;;;;22.90;13.70;;;23.60;99.90;;;;;;4800155;29;20441;-86
2022/06/20 03:08:49;;;;;;;18.37;12.70;;;23.70;99.90;;;;;;4890667;29;20498;-86
2022/06/20 03:11:16;;;;;;;16.90;12.63;;;23.80;99.90;;;;;;4978648;28;20554;-86
2022/06/20 03:13:43;;;;;;;23.20;13.70;;;23.80;99.90;;;;;;5040848;28;20504;-86
2022/06/20 03:16:11;;;;;;;19.20;13.20;;;23.90;99.90;;;;;;5041955;28;20456;-86
2022/06/20 03:18:41;;;;;;;19.40;13.67;;;23.90;99.90;;;;;;5041303;28;20469;-86
2022/06/20 03:21:09;;;;;;;19.67;14.40;;;23.90;99.90;;;;;;5047546;28;20545;-84
2022/06/20 03:23:37;;;;;;;21.07;13.37;;;23.90;99.90;;;;;;5060265;28;20514;-83
2022/06/20 03:26:10;;;;;;;20.50;13.70;;;23.90;99.90;;;;;;5061730;28;20468;-84
2022/06/20 03:28:37;;;;;;;19.47;12.70;;;23.80;99.90;;;;;;5043609;28;20517;-87
2022/06/20 03:31:05;;;;;;;19.67;12.87;;;23.90;99.90;;;;;;5046127;28;20900;-85
2022/06/20 03:33:33;;;;;;;19.50;12.70;;;23.90;99.90;;;;;;5052775;28;20446;-84
2022/06/20 03:36:07;;;;;;;17.37;12.77;;;23.90;99.90;;;;;;5061385;28;20488;-83
2022/06/20 03:38:35;;;;;;;20.40;12.77;;;23.90;99.90;;;;;;5054535;28;20462;-87
2022/06/20 03:41:06;;;;;;;18.93;9.57;;;23.90;99.90;;;;;;5049865;28;20577;-85
2022/06/20 03:51:12;;;;;;;19.30;11.50;;;23.40;99.90;;;;;;4951965;29;20481;-88
2022/06/20 05:02:20;;;;;;;17.67;12.13;;;22.20;99.90;;;;;;5332048;23;20531;-87
2022/06/20 05:04:50;;;;;;;18.07;12.43;;;22.20;99.90;;;;;;5062481;28;20946;-86
2022/06/20 05:07:23;;;;;;;15.10;12.27;;;22.30;99.90;;;;;;5072274;28;20472;-87
2022/06/20 05:09:56;;;;;;;19.07;11.27;;;22.40;99.90;;;;;;5072227;28;20805;-88
2022/06/20 05:12:27;;;;;;;19.90;12.07;;;22.60;99.90;;;;;;5047161;28;20488;-88
2022/06/20 05:15:05;;;;;;;15.83;11.87;;;22.80;99.90;;;;;;5048525;28;20434;-88
2022/06/20 05:17:36;;;;;;;16.57;12.23;;;22.80;99.90;;;;;;5046613;28;20414;-86
2022/06/20 05:20:09;;;;;;;18.03;11.67;;;23.00;99.90;;;;;;5052403;28;20434;-88
2022/06/20 05:22:44;;;;;;;17.20;11.37;;;22.90;99.90;;;;;;5059801;28;20461;-84
2022/06/20 05:25:16;;;;;;;20.03;14.47;;;22.80;99.90;;;;;;5054957;28;20449;-86
2022/06/20 05:27:48;;;;;;;15.50;12.33;;;22.70;99.90;;;;;;5045146;28;20439;-87
2022/06/20 05:30:19;;;;;;;18.50;12.93;;;22.60;99.90;;;;;;5043278;28;20497;-86
2022/06/20 05:32:52;;;;;;;19.40;12.80;;;22.60;99.90;;;;;;5042900;28;20521;-86
2022/06/20 05:35:25;;;;;;;18.70;10.80;;;22.50;99.90;;;;;;5045012;28;20458;-86
2022/06/20 05:37:56;;;;;;;20.20;12.07;;;22.50;99.90;;;;;;5042838;28;20438;-88
2022/06/20 05:40:28;;;;;;;15.40;10.40;;;22.50;99.90;;;;;;5042212;28;20561;-88
2022/06/20 05:42:55;;;;;;;17.20;11.60;;;22.50;99.90;;;;;;5043310;28;20469;-87
2022/06/20 05:45:24;;;;;;;15.80;10.97;;;22.80;99.90;;;;;;5044703;28;20532;-87
2022/06/20 05:47:54;;;;;;;17.70;11.23;;;22.80;99.90;;;;;;5053847;28;20486;-87
2022/06/20 05:50:34;;;;;;;14.10;10.90;;;23.00;99.90;;;;;;5052502;28;21009;-84
2022/06/20 05:53:04;;;;;;;18.90;11.77;;;23.00;99.90;;;;;;5051298;28;20502;-88
2022/06/20 05:55:41;;;;;;;23.40;12.00;;;23.00;99.90;;;;;;5050740;28;20462;-87
2022/06/20 05:58:09;;;;;;;17.07;11.00;;;23.00;99.90;;;;;;5042543;28;20434;-85
2022/06/20 06:00:37;;;;;;;14.60;11.53;;;23.00;99.90;;;;;;5041168;28;20485;-86
2022/06/20 06:03:13;;;;;;;20.47;10.83;;;22.90;99.90;;;;;;5046797;28;20457;-88
2022/06/20 06:05:41;;;;;;;14.80;9.60;;;23.00;99.90;;;;;;5046905;28;20511;-87
2022/06/20 06:08:15;;;;;;;18.97;10.00;;;23.10;99.90;;;;;;5045198;28;20454;-88
2022/06/20 06:10:46;;;;;;;20.23;10.77;;;23.30;99.90;;;;;;5052332;28;20540;-86
2022/06/20 06:13:21;;;;;;;15.03;10.10;;;23.30;99.90;;;;;;5046960;28;20454;-86
2022/06/20 06:18:49;;;;;;;16.27;11.53;;;23.00;99.90;;;;;;5047357;28;20406;-89
2022/06/20 06:21:17;;;;;;;19.20;11.60;;;22.80;99.90;;;;;;5047779;28;20512;-86
2022/06/20 06:23:45;;;;;;;15.80;11.23;;;22.80;99.90;;;;;;5052074;28;20510;-87
2022/06/20 06:26:15;;;;;;;15.47;11.37;;;23.00;99.90;;;;;;5046322;28;20469;-86
2022/06/20 06:28:43;;;;;;;17.10;12.03;;;23.10;99.90;;;;;;5043832;28;20808;-86
2022/06/20 06:31:15;;;;;;;22.93;12.70;;;23.00;99.90;;;;;;5041930;28;20501;-86
2022/06/20 06:33:49;;;;;;;23.40;12.60;;;23.10;99.90;;;;;;5040402;28;20858;-86
2022/06/20 06:36:20;;;;;;;17.03;11.17;;;23.30;99.90;;;;;;5045529;28;20468;-87
2022/06/20 06:38:54;;;;;;;15.03;11.37;;;23.10;99.90;;;;;;5048780;28;20453;-87
2022/06/20 06:41:26;;;;;;;23.93;12.40;;;23.00;99.90;;;;;;5057518;28;20501;-87
2022/06/20 06:43:55;;;;;;;22.87;11.83;;;23.10;99.90;;;;;;5058000;28;20422;-86
2022/06/20 06:46:38;;;;;;;17.27;13.20;;;23.40;99.90;;;;;;5054438;28;20442;-86
2022/06/20 06:49:24;;;;;;;16.77;11.90;;;23.40;99.90;;;;;;5055884;28;20438;-89
2022/06/20 06:52:00;;;;;;;21.70;12.70;;;23.60;99.90;;;;;;5054117;28;20501;-87
2022/06/20 06:55:01;;;;;;;;;;;;;;;;;;;;;
2022/06/20 06:58:07;;;;;;;17.03;12.27;;;23.90;99.90;;;;;;5036609;28;20449;-88
2022/06/20 07:00:44;;;;;;;23.40;12.70;;;23.80;99.90;;;;;;5038444;28;20551;-87
2022/06/20 07:03:41;;;;;;;17.20;11.33;;;23.70;99.90;;;;;;5038633;28;20453;-87
2022/06/20 07:06:17;;;;;;;22.40;12.83;;;23.70;99.90;;;;;;5039090;28;20487;-87
2022/06/20 07:08:54;;;;;;;17.17;12.87;;;23.90;99.90;;;;;;5038273;28;20437;-88
2022/06/20 07:12:06;;;;;;;23.33;13.00;;;23.90;99.90;;;;;;5038962;28;20465;-87
2022/06/20 07:14:39;;;;;;;23.60;15.00;;;23.80;99.90;;;;;;5034678;28;20456;-88
2022/06/20 07:17:18;;;;;;;14.60;11.77;;;23.80;99.90;;;;;;5040024;28;20414;-88
2022/06/20 07:19:51;;;;;;;19.60;13.60;;;24.00;99.90;;;;;;5057425;28;20430;-87
2022/06/20 07:22:22;;;;;;;19.13;12.70;;;24.10;99.90;;;;;;5057098;28;20564;-85
2022/06/20 07:24:56;;;;;;;21.57;13.37;;;24.10;99.90;;;;;;5056933;28;20434;-88
2022/06/20 07:30:48;;;;;;;15.10;10.00;;;24.40;99.90;;;;;;5036617;28;20445;-89
2022/06/20 07:39:51;;;;;;;14.00;10.50;;;24.50;99.90;;;;;;5053844;28;20452;-87
2022/06/20 07:42:25;;;;;;;16.43;10.53;;;24.70;99.90;;;;;;5046176;28;20477;-88
2022/06/20 07:44:58;;;;;;;15.50;10.07;;;24.80;99.90;;;;;;5039444;28;20470;-88
2022/06/20 07:47:30;;;;;;;13.53;11.00;;;24.80;99.90;;;;;;5039082;28;20473;-88
2022/06/20 07:50:08;;;;;;;15.13;11.63;;;24.90;99.90;;;;;;5039540;28;20600;-89
2022/06/20 07:52:43;;;;;;;14.30;10.00;;;25.10;99.90;;;;;;5040123;28;20477;-87
2022/06/20 07:55:17;;;;;;;15.30;10.30;;;25.20;99.90;;;;;;5095729;23;20450;-86
2022/06/20 07:57:51;;;;;;;14.93;10.53;;;25.30;99.90;;;;;;5063266;28;20440;-86
2022/06/20 08:00:35;;;;;;;21.83;11.40;;;25.40;99.90;;;;;;5065038;28;20497;-86
2022/06/20 08:03:09;;;;;;;13.30;10.60;;;25.50;99.90;;;;;;5069362;28;20540;-87
2022/06/20 08:05:51;;;;;;;16.00;12.80;;;25.70;99.90;;;;;;5060550;28;20473;-87
2022/06/20 08:08:28;;;;;;;13.80;10.73;;;25.70;99.90;;;;;;5041802;28;20445;-87
2022/06/20 08:11:02;;;;;;;16.50;11.97;;;25.80;99.90;;;;;;5046090;28;20476;-88
2022/06/20 08:13:33;;;;;;;14.73;10.80;;;25.90;99.90;;;;;;5044743;28;20433;-87
2022/06/20 08:16:05;;;;;;;15.87;11.63;;;25.90;99.90;;;;;;5041226;28;20470;-87
2022/06/20 08:18:32;;;;;;;14.13;10.80;;;25.80;99.90;;;;;;5044715;28;20439;-86
2022/06/20 08:21:06;;;;;;;12.50;9.13;;;26.00;99.90;;;;;;5044458;28;20512;-87
2022/06/20 08:23:41;;;;;;;11.80;8.73;;;26.30;99.90;;;;;;5042232;28;20828;-88
2022/06/20 08:26:17;;;;;;;10.13;8.97;;;26.30;99.90;;;;;;5040036;28;21003;-87
2022/06/20 08:28:51;;;;;;;11.47;8.07;;;26.30;99.90;;;;;;5054574;28;20456;-87
2022/06/20 08:31:25;;;;;;;13.33;9.00;;;26.10;99.90;;;;;;5042634;28;20452;-86
2022/06/20 08:34:17;;;;;;;13.37;9.20;;;26.20;99.90;;;;;;5042229;28;20594;-86
2022/06/20 08:36:48;;;;;;;12.97;7.10;;;26.40;99.90;;;;;;5042604;28;20564;-87
2022/06/20 08:39:22;;;;;;;14.83;8.03;;;25.90;99.90;;;;;;5043389;28;20474;-87
2022/06/20 08:42:17;;;;;;;12.20;9.43;;;25.70;99.90;;;;;;5050461;28;20557;-86
2022/06/20 08:45:17;;;;;;;11.37;9.10;;;25.80;99.90;;;;;;5057991;28;20446;-87
2022/06/20 08:48:23;;;;;;;11.67;8.03;;;25.90;99.90;;;;;;5046187;28;20469;-87
2022/06/20 08:51:39;;;;;;;11.13;9.80;;;26.00;99.90;;;;;;5041881;28;20472;-86
2022/06/20 08:54:27;;;;;;;12.90;8.10;;;26.00;99.90;;;;;;5042222;28;20473;-87
2022/06/20 08:57:04;;;;;;;13.83;9.67;;;26.00;99.90;;;;;;5041469;28;20509;-87
2022/06/20 08:59:55;;;;;;;14.47;9.27;;;25.90;99.90;;;;;;5053863;28;20476;-87
2022/06/20 09:02:35;;;;;;;13.17;8.20;;;26.10;99.90;;;;;;5049399;28;20489;-87
2022/06/20 09:05:31;;;;;;;18.73;9.00;;;25.90;99.90;;;;;;5042163;28;20434;-87
2022/06/20 09:08:20;;;;;;;12.53;8.67;;;25.90;99.90;;;;;;5040228;28;20906;-87
2022/06/20 09:11:00;;;;;;;14.40;9.53;;;26.00;99.90;;;;;;5043643;28;20517;-86
2022/06/20 09:14:01;;;;;;;12.97;9.00;;;26.00;99.90;;;;;;5040843;28;20488;-87
2022/06/20 09:16:50;;;;;;;16.37;9.53;;;26.20;99.90;;;;;;5053375;28;20518;-87
2022/06/20 09:19:35;;;;;;;14.97;9.70;;;26.60;99.90;;;;;;5042301;28;20508;-87
2022/06/20 09:22:25;;;;;;;16.63;9.77;;;26.60;99.90;;;;;;5038610;28;20539;-87
2022/06/20 09:25:07;;;;;;;15.30;10.00;;;26.80;99.90;;;;;;5039503;28;20941;-87
2022/06/20 09:27:46;;;;;;;13.00;9.47;;;26.80;99.90;;;;;;5040388;28;20505;-87
2022/06/20 09:30:19;;;;;;;13.10;9.23;;;27.00;99.90;;;;;;5046623;28;20499;-87
2022/06/20 09:33:17;;;;;;;14.40;8.73;;;27.20;99.90;;;;;;5040980;28;20488;-87
2022/06/20 09:36:21;;;;;;;15.30;10.07;;;27.20;99.90;;;;;;5041568;28;20553;-87
2022/06/20 09:39:03;;;;;;;16.90;9.80;;;27.00;99.90;;;;;;5043963;28;20442;-87
2022/06/20 09:41:36;;;;;;;10.67;9.50;;;27.00;99.90;;;;;;5042968;28;20529;-87
2022/06/20 09:44:19;;;;;;;11.70;9.00;;;27.20;99.90;;;;;;5039556;28;20450;-87
2022/06/20 09:47:00;;;;;;;14.10;9.70;;;27.60;99.60;;;;;;5040494;28;20478;-87
2022/06/20 09:49:39;;;;;;;11.03;7.57;;;27.80;99.10;;;;;;5042117;28;20544;-87
2022/06/20 09:52:15;;;;;;;13.97;9.40;;;27.90;98.70;;;;;;5042803;28;20485;-88
2022/06/20 09:55:00;;;;;;;13.63;10.30;;;27.90;98.80;;;;;;5041762;28;20451;-87
2022/06/20 09:57:41;;;;;;;14.27;9.00;;;28.00;97.80;;;;;;5050759;28;20870;-86
2022/06/20 10:00:15;;;;;;;10.43;9.30;;;28.10;98.00;;;;;;5046609;28;20456;-86
2022/06/20 10:02:55;;;;;;;12.53;9.17;;;28.30;97.60;;;;;;5040744;28;20484;-86
2022/06/20 10:05:43;;;;;;;11.73;7.87;;;28.30;96.50;;;;;;5039860;28;20496;-86
2022/06/20 10:08:21;;;;;;;12.77;7.60;;;28.20;96.40;;;;;;5040923;28;20461;-86
2022/06/20 10:10:55;;;;;;;16.47;9.00;;;27.90;97.40;;;;;;5041358;28;20437;-87
2022/06/20 10:13:37;;;;;;;12.10;8.33;;;28.00;97.60;;;;;;5048673;28;20402;-87
2022/06/20 10:16:12;;;;;;;11.23;8.10;;;28.10;97.20;;;;;;5052483;28;20503;-86
2022/06/20 10:18:48;;;;;;;9.13;5.80;;;27.80;97.40;;;;;;5044314;28;20437;-87
2022/06/20 10:21:23;;;;;;;12.73;7.77;;;27.50;97.80;;;;;;5041188;28;20925;-86
2022/06/20 10:24:19;;;;;;;14.20;8.40;;;27.20;98.60;;;;;;5040137;28;20476;-85
2022/06/20 10:27:08;;;;;;;12.97;8.73;;;27.30;98.50;;;;;;5038559;28;20567;-87
2022/06/20 10:29:50;;;;;;;14.90;9.07;;;27.40;98.50;;;;;;5041858;28;20434;-87
2022/06/20 10:32:23;;;;;;;11.10;7.93;;;27.60;98.30;;;;;;5043024;28;20422;-86
2022/06/20 10:35:10;;;;;;;10.67;7.67;;;27.90;97.80;;;;;;5038974;28;21004;-87
2022/06/20 10:37:46;;;;;;;11.63;6.70;;;27.80;97.80;;;;;;5039128;28;20465;-87
2022/06/20 10:40:21;;;;;;;14.43;9.20;;;27.80;97.40;;;;;;5039731;28;20476;-87
2022/06/20 10:42:59;;;;;;;10.77;7.77;;;27.90;97.60;;;;;;5037857;28;20462;-87
2022/06/20 10:45:34;;;;;;;13.33;7.80;;;28.00;97.10;;;;;;5037645;28;20481;-87
2022/06/20 10:48:27;;;;;;;14.13;8.20;;;28.20;96.30;;;;;;5037198;28;20440;-87
2022/06/20 10:51:08;;;;;;;9.30;5.80;;;28.40;95.00;;;;;;5038881;28;20442;-87
2022/06/20 10:54:01;;;;;;;8.73;5.47;;;28.70;93.00;;;;;;5040964;28;20466;-88
2022/06/20 10:56:48;;;;;;;9.40;6.07;;;28.70;92.70;;;;;;5038519;28;20548;-87
2022/06/20 10:59:33;;;;;;;12.00;6.33;;;28.60;91.50;;;;;;5037783;28;20430;-87
2022/06/20 11:02:29;;;;;;;10.27;6.60;;;28.70;92.00;;;;;;5037240;28;20482;-87
2022/06/20 11:05:08;;;;;;;13.57;7.20;;;28.70;91.80;;;;;;5038662;28;20531;-86
2022/06/20 11:10:35;;;;;;;9.27;5.60;;;28.50;91.70;;;;;;5037926;28;20434;-86
2022/06/20 11:13:15;;;;;;;8.20;6.23;;;28.60;91.00;;;;;;5041054;28;20430;-86
2022/06/20 11:15:51;;;;;;;14.80;6.23;;;28.60;90.50;;;;;;5044255;28;20521;-87
2022/06/20 11:18:43;;;;;;;9.83;5.77;;;28.50;90.40;;;;;;5040268;28;20500;-86
2022/06/20 11:21:18;;;;;;;9.83;6.60;;;28.40;90.70;;;;;;5037732;28;20443;-87
2022/06/20 11:23:56;;;;;;;9.93;5.90;;;28.60;91.00;;;;;;5039176;28;20564;-87
2022/06/20 11:26:33;;;;;;;9.43;5.77;;;28.60;90.30;;;;;;5046971;28;20477;-88
2022/06/20 11:29:15;;;;;;;14.17;5.43;;;28.70;89.30;;;;;;5041888;28;20442;-87
2022/06/20 11:31:53;;;;;;;8.70;5.60;;;28.50;87.00;;;;;;5044110;28;20513;-86
2022/06/20 11:34:39;;;;;;;8.80;6.30;;;28.50;89.40;;;;;;5038900;28;20496;-86
2022/06/20 11:37:20;;;;;;;10.57;7.33;;;28.60;90.90;;;;;;5037917;28;20530;-86
2022/06/20 11:40:04;;;;;;;10.70;8.17;;;28.10;93.20;;;;;;5040811;28;20434;-87
2022/06/20 11:42:54;;;;;;;10.87;7.63;;;27.30;95.70;;;;;;5043525;28;20464;-86
2022/06/20 11:45:40;;;;;;;11.53;8.50;;;27.30;96.20;;;;;;5048795;28;20564;-86
2022/06/20 11:48:22;;;;;;;10.70;7.53;;;27.40;96.20;;;;;;5052304;28;20417;-86
2022/06/20 11:50:57;;;;;;;17.53;9.00;;;27.60;95.90;;;;;;5051522;28;20854;-86
2022/06/20 11:53:54;;;;;;;;;;;;;;;;;;;;;
2022/06/20 11:56:34;;;;;;;13.77;9.40;;;27.10;96.90;;;;;;5044099;28;20481;-87
2022/06/20 11:59:15;;;;;;;16.47;7.93;;;27.40;97.00;;;;;;5045373;28;20421;-86
2022/06/20 12:01:48;;;;;;;18.23;8.03;;;27.40;96.40;;;;;;5045787;28;20449;-87
2022/06/20 12:04:27;;;;;;;13.20;8.27;;;27.50;96.80;;;;;;5047021;28;21017;-87
2022/06/20 12:07:14;;;;;;;12.67;8.50;;;27.70;96.20;;;;;;5041229;28;20481;-87
2022/06/20 12:10:03;;;;;;;11.63;7.50;;;27.90;95.60;;;;;;5042598;28;20936;-87
2022/06/20 12:12:45;;;;;;;11.47;7.57;;;28.10;95.10;;;;;;5042859;28;20430;-87
2022/06/20 12:15:41;;;;;;;10.10;7.50;;;27.90;95.40;;;;;;5044928;28;20525;-87
2022/06/20 12:18:27;;;;;;;11.77;6.37;;;27.90;95.10;;;;;;5042344;28;20438;-86
2022/06/20 12:23:48;;;;;;;8.53;5.80;;;28.00;94.20;;;;;;5039004;28;20531;-87
2022/06/20 12:26:21;;;;;;;8.90;5.20;;;27.90;93.90;;;;;;5041019;28;20523;-86
2022/06/20 12:28:58;;;;;;;10.13;5.17;;;27.70;93.40;;;;;;5040026;28;20485;-87
2022/06/20 12:31:41;;;;;;;10.87;4.37;;;27.80;93.30;;;;;;5039573;28;20450;-87
2022/06/20 12:34:21;;;;;;;7.97;4.47;;;27.20;93.50;;;;;;5040600;28;20434;-86
2022/06/20 12:36:56;;;;;;;10.23;5.93;;;27.10;93.70;;;;;;5039571;28;20461;-87
2022/06/20 12:39:47;;;;;;;9.00;6.17;;;27.20;95.40;;;;;;5041171;28;20449;-87
2022/06/20 12:42:23;;;;;;;15.90;7.87;;;26.40;98.20;;;;;;5042337;28;20438;-88
2022/06/20 12:45:01;;;;;;;13.07;7.93;;;26.40;99.20;;;;;;5041938;28;20438;-86
2022/06/20 12:47:56;;;;;;;11.30;6.40;;;26.10;99.90;;;;;;5043986;28;20553;-87
2022/06/20 12:50:25;;;;;;;12.57;6.17;;;26.30;99.70;;;;;;5039267;28;20830;-87
2022/06/20 12:53:22;;;;;;;12.13;7.90;;;26.50;99.00;;;;;;5040817;28;20817;-87
2022/06/20 12:56:14;;;;;;;13.13;7.40;;;26.60;99.10;;;;;;5037651;28;20482;-88
2022/06/20 12:59:19;;;;;;;12.13;6.37;;;26.30;99.50;;;;;;5048248;28;20462;-86
2022/06/20 13:01:54;;;;;;;14.67;7.90;;;26.10;99.90;;;;;;5043671;28;20512;-86
2022/06/20 13:05:03;;;;;;;15.73;6.47;;;25.60;99.90;;;;;;5042774;28;20537;-87
2022/06/20 13:07:55;;;;;;;13.87;7.53;;;25.50;99.90;;;;;;5048236;28;20469;-86
2022/06/20 13:10:32;;;;;;;14.10;8.00;;;25.40;99.90;;;;;;5048131;28;20461;-86
2022/06/20 13:13:37;;;;;;;11.83;8.73;;;25.50;99.90;;;;;;5046627;28;20422;-86
2022/06/20 13:16:12;;;;;;;10.07;6.67;;;25.70;99.90;;;;;;5024571;28;20518;-87
2022/06/20 13:19:31;;;;;;;15.37;8.17;;;25.80;99.90;;;;;;5046573;28;20415;-87
2022/06/20 13:22:05;;;;;;;10.03;7.27;;;25.80;99.90;;;;;;5042153;28;20444;-86
2022/06/20 13:24:45;;;;;;;15.43;7.63;;;25.80;99.90;;;;;;5053808;28;20466;-87
2022/06/20 13:27:41;;;;;;;8.40;6.80;;;25.80;99.90;;;;;;5056089;28;20449;-87
2022/06/20 13:30:38;;;;;;;11.00;7.43;;;25.70;99.90;;;;;;5048768;28;20486;-85
2022/06/20 13:33:18;;;;;;;12.00;7.50;;;25.60;99.90;;;;;;5044796;28;20497;-87
2022/06/20 13:35:58;;;;;;;14.03;8.03;;;25.60;99.90;;;;;;5043871;28;20473;-87
2022/06/20 13:38:36;;;;;;;15.00;9.47;;;25.30;99.90;;;;;;5042512;28;20439;-87
2022/06/20 13:41:13;;;;;;;9.07;8.00;;;25.20;99.90;;;;;;5041660;28;20428;-86
2022/06/20 13:43:55;;;;;;;13.27;7.60;;;25.00;99.90;;;;;;5041836;28;20481;-87
2022/06/20 13:46:29;;;;;;;11.03;8.57;;;25.10;99.90;;;;;;5040289;28;20517;-87
2022/06/20 13:49:04;;;;;;;9.50;8.13;;;25.30;99.90;;;;;;5041317;28;20476;-87
2022/06/20 13:51:44;;;;;;;10.13;7.70;;;25.20;99.90;;;;;;5045990;28;20453;-86
2022/06/20 13:54:24;;;;;;;9.10;8.03;;;25.00;99.90;;;;;;5045166;28;20516;-86
2022/06/20 13:56:58;;;;;;;13.13;8.27;;;25.20;99.90;;;;;;5044969;28;20564;-85
2022/06/20 13:59:31;;;;;;;10.63;5.67;;;25.30;99.90;;;;;;5046162;28;20442;-86
2022/06/20 14:02:04;;;;;;;8.10;6.47;;;25.00;99.90;;;;;;5049481;28;20438;-87
2022/06/20 14:04:34;;;;;;;9.77;6.93;;;24.80;99.90;;;;;;5046106;28;20470;-87
2022/06/20 14:07:06;;;;;;;7.33;5.40;;;24.40;99.90;;;;;;5042823;28;20524;-88
2022/06/20 14:09:39;;;;;;;8.80;5.77;;;24.30;99.90;;;;;;5042180;28;20442;-87
2022/06/20 14:12:25;;;;;;;7.20;6.10;;;23.90;99.90;;;;;;5046749;28;20487;-89
2022/06/20 14:14:57;;;;;;;13.50;6.73;;;23.60;99.90;;;;;;5051157;28;20857;-86
2022/06/20 14:17:28;;;;;;;8.37;6.60;;;23.50;99.90;;;;;;5050007;28;20564;-87
2022/06/20 14:20:02;;;;;;;8.20;6.83;;;23.70;99.90;;;;;;5042383;28;20462;-88
2022/06/20 14:22:34;;;;;;;8.33;6.10;;;23.80;99.90;;;;;;5039940;28;20473;-88
2022/06/20 14:25:07;;;;;;;9.37;6.30;;;23.70;99.90;;;;;;5046857;28;20527;-85
2022/06/20 14:27:35;;;;;;;9.27;6.67;;;23.90;99.90;;;;;;5046103;28;20434;-86
2022/06/20 14:30:05;;;;;;;13.03;7.10;;;24.20;99.90;;;;;;5044113;28;20489;-86
2022/06/20 14:32:41;;;;;;;9.37;6.87;;;24.40;99.90;;;;;;5043585;28;20555;-88
2022/06/20 14:35:23;;;;;;;10.33;6.50;;;24.20;99.90;;;;;;5045654;28;20446;-87
2022/06/20 14:38:01;;;;;;;10.50;6.77;;;24.30;99.90;;;;;;5041815;28;20473;-86
2022/06/20 14:40:32;;;;;;;8.10;6.03;;;24.30;99.90;;;;;;5051367;28;20437;-86
2022/06/20 14:43:09;;;;;;;10.20;6.30;;;24.20;99.90;;;;;;5044634;28;20442;-87
2022/06/20 14:45:48;;;;;;;11.23;6.37;;;24.30;99.90;;;;;;5044390;28;20489;-87
2022/06/20 14:48:22;;;;;;;8.43;6.40;;;24.40;99.90;;;;;;5045590;28;20434;-87
2022/06/20 14:50:53;;;;;;;6.83;5.80;;;24.60;99.90;;;;;;5129476;23;20493;-86
2022/06/20 14:53:30;;;;;;;8.20;5.80;;;25.00;99.90;;;;;;5073373;28;20473;-89
2022/06/20 14:56:06;;;;;;;8.47;5.47;;;25.00;99.90;;;;;;5060202;28;20468;-86
2022/06/20 14:58:46;;;;;;;10.13;6.40;;;25.10;99.90;;;;;;5060157;28;20449;-88
2022/06/20 15:01:22;;;;;;;10.57;5.77;;;25.40;99.90;;;;;;5053168;28;20462;-87
2022/06/20 15:03:55;;;;;;;8.20;6.33;;;25.60;99.90;;;;;;5040852;28;20474;-87
2022/06/20 15:06:27;;;;;;;8.77;5.80;;;25.30;99.90;;;;;;5040026;28;20474;-88
2022/06/20 15:09:03;;;;;;;9.40;6.47;;;25.00;99.90;;;;;;5042982;28;20434;-87
2022/06/20 15:11:35;;;;;;;8.63;7.37;;;24.80;99.90;;;;;;5044118;28;20461;-87
2022/06/20 15:14:13;;;;;;;8.20;6.00;;;25.00;99.90;;;;;;5053408;28;20446;-87
2022/06/20 15:16:45;;;;;;;8.07;6.03;;;24.80;99.90;;;;;;5045506;28;20445;-86
2022/06/20 15:19:23;;;;;;;8.60;5.70;;;24.60;99.90;;;;;;5046014;28;20890;-89
2022/06/20 15:21:55;;;;;;;10.73;6.93;;;24.40;99.90;;;;;;5047223;28;20512;-88
2022/06/20 15:24:43;;;;;;;9.27;6.80;;;24.60;99.90;;;;;;5056484;28;20481;-88
2022/06/20 15:27:17;;;;;;;7.77;5.83;;;24.90;99.90;;;;;;5047498;28;20850;-88
2022/06/20 15:29:52;;;;;;;8.73;6.00;;;24.80;99.90;;;;;;5048017;28;20441;-87
2022/06/20 15:32:36;;;;;;;10.47;6.80;;;24.80;99.90;;;;;;5047138;28;20488;-88
2022/06/20 15:35:56;;;;;;;9.70;6.20;;;24.80;99.90;;;;;;5050264;28;20434;-88
2022/06/20 15:38:45;;;;;;;9.43;6.13;;;25.00;99.90;;;;;;5049464;28;20469;-87
2022/06/20 15:41:46;;;;;;;6.93;6.03;;;25.10;99.90;;;;;;5053898;28;20532;-88
2022/06/20 15:44:51;;;;;;;8.70;5.93;;;24.90;99.90;;;;;;5041881;28;20547;-87
2022/06/20 15:47:44;;;;;;;7.60;5.60;;;25.30;99.90;;;;;;5048175;28;20450;-88
2022/06/20 15:50:22;;;;;;;6.20;5.07;;;25.50;99.90;;;;;;5033844;28;20445;-79
2022/06/20 15:53:07;;;;;;;11.50;6.60;;;25.10;99.90;;;;;;5043142;28;20449;-79
2022/06/20 15:56:05;;;;;;;8.80;7.30;;;25.10;99.90;;;;;;5043749;28;20430;-79
2022/06/20 15:58:59;;;;;;;8.33;7.00;;;25.10;99.90;;;;;;5037277;28;20446;-79
2022/06/20 16:01:57;;;;;;;11.60;6.60;;;25.50;99.90;;;;;;5048083;28;20473;-79
2022/06/20 16:04:35;;;;;;;12.40;7.43;;;25.30;99.90;;;;;;5045325;28;20560;-79
2022/06/20 16:07:12;;;;;;;6.83;5.43;;;25.30;99.90;;;;;;5046004;28;20422;-79
2022/06/20 16:09:50;;;;;;;8.37;6.63;;;25.10;99.90;;;;;;5047810;28;20433;-80
2022/06/20 16:12:20;;;;;;;8.63;7.13;;;24.80;99.90;;;;;;5046963;28;20465;-79
2022/06/20 16:14:52;;;;;;;9.67;6.73;;;24.50;99.90;;;;;;5046598;28;20505;-79
2022/06/20 16:17:25;;;;;;;8.93;6.03;;;24.40;99.90;;;;;;5046421;28;20453;-79
2022/06/20 16:19:57;;;;;;;8.80;6.57;;;24.50;99.90;;;;;;5047368;28;20502;-78
2022/06/20 16:22:26;;;;;;;7.10;6.10;;;24.70;99.90;;;;;;5048291;28;20489;-80
2022/06/20 16:24:56;;;;;;;7.83;6.17;;;24.80;99.90;;;;;;5057782;28;20469;-78
2022/06/20 16:27:27;;;;;;;8.00;6.40;;;24.50;99.90;;;;;;5057266;28;20441;-79
2022/06/20 16:29:58;;;;;;;8.30;6.13;;;24.20;99.90;;;;;;5046080;28;20438;-78
2022/06/20 16:32:33;;;;;;;7.03;6.33;;;24.10;99.90;;;;;;5039578;28;20508;-77
2022/06/20 16:35:01;;;;;;;7.60;6.60;;;24.20;99.90;;;;;;5039689;28;20454;-77